ADDS TAF Data INFO
IDs: Format: Raw Decoded Include METARs

Data at: 1308 UTC 22 Nov 2017

KEWN 221130Z 2212/2312 VRB03KT 3SM BR SCT002 BKN035
  TEMPO 2212/2214 1/2SM FG OVC002
  FM221400 32008KT 5SM BR SCT007 BKN015
  FM221600 33010KT P6SM BKN040
  FM221800 34011G19KT P6SM SCT050
  FM222100 01007KT P6SM FEW200